createdAt,value
2018-04-16T04:54:44.587Z,5.37
2018-04-16T04:57:16.476Z,5.67
2018-04-16T04:59:48.373Z,5.53
2018-04-16T05:02:20.247Z,5.23
2018-04-16T05:04:52.897Z,5.40
2018-04-16T05:07:24.771Z,5.60
2018-04-16T05:09:56.667Z,6.47
2018-04-16T05:12:28.550Z,4.97
2018-04-16T05:15:00.456Z,5.13
2018-04-16T05:17:32.354Z,4.73
2018-04-16T05:20:04.246Z,4.70
2018-04-16T05:22:36.129Z,5.20
2018-04-16T05:25:08.025Z,4.83
2018-04-16T05:27:39.897Z,5.03
2018-04-16T05:30:11.805Z,4.73
2018-04-16T05:32:43.682Z,4.50
2018-04-16T05:35:16.338Z,3.90
2018-04-16T05:37:48.205Z,3.63
2018-04-16T05:40:20.309Z,3.78
2018-04-16T05:42:52.194Z,3.58
2018-04-16T05:45:24.113Z,3.40
2018-04-16T05:47:56.805Z,3.90
2018-04-16T05:50:29.456Z,3.28
2018-04-16T05:53:01.652Z,3.50
2018-04-16T05:55:33.541Z,4.10
2018-04-16T05:58:05.434Z,4.00
2018-04-16T06:00:37.338Z,4.53
2018-04-16T06:03:09.498Z,4.50
2018-04-16T06:05:41.389Z,3.70
2018-04-16T06:08:13.254Z,4.45
2018-04-16T06:10:45.154Z,4.43
2018-04-16T06:13:17.035Z,4.62
2018-04-16T06:15:49.921Z,4.03
2018-04-16T06:18:21.793Z,4.60
2018-04-16T06:20:53.698Z,5.10
2018-04-16T06:23:25.593Z,4.15
2018-04-16T06:25:58.253Z,4.00
2018-04-16T06:28:30.245Z,4.00
2018-04-16T06:31:02.160Z,4.20
2018-04-16T06:33:34.286Z,3.95
2018-04-16T06:36:06.170Z,3.67
2018-04-16T06:38:38.816Z,3.60
2018-04-16T06:41:10.698Z,3.67
2018-04-16T06:43:42.579Z,4.32
2018-04-16T06:46:14.498Z,4.10
2018-04-16T06:48:46.370Z,4.20
2018-04-16T06:51:18.257Z,4.55
2018-04-16T06:53:50.137Z,4.72
2018-04-16T06:56:22.047Z,4.68
2018-04-16T06:58:53.926Z,4.27
2018-04-16T07:01:25.832Z,4.47
2018-04-16T07:03:58.480Z,4.53
2018-04-16T07:06:30.371Z,5.40
2018-04-16T07:09:03.024Z,5.00
2018-04-16T07:11:34.952Z,4.77
2018-04-16T07:14:06.832Z,4.47
2018-04-16T07:16:38.742Z,5.30
2018-04-16T07:19:11.390Z,4.60
2018-04-16T07:21:43.596Z,5.33
2018-04-16T07:24:15.470Z,5.20
2018-04-16T07:26:47.364Z,4.20
2018-04-16T07:29:19.253Z,3.50
2018-04-16T07:31:51.445Z,4.07
2018-04-16T07:34:23.319Z,3.70
2018-04-16T07:36:55.205Z,4.77
2018-04-16T07:39:27.134Z,4.63
2018-04-16T07:41:59.011Z,4.27
2018-04-16T07:44:30.994Z,4.73
2018-04-16T07:47:02.890Z,4.90
2018-04-16T07:49:35.533Z,4.30
2018-04-16T07:52:07.754Z,4.80
2018-04-16T07:54:39.622Z,4.13
2018-04-16T07:57:11.510Z,4.70
2018-04-16T07:59:43.409Z,3.90
2018-04-16T08:02:15.338Z,5.10
2018-04-16T08:04:47.461Z,3.63
2018-04-16T08:07:19.362Z,4.40
2018-04-16T08:09:51.241Z,4.30
2018-04-16T08:12:23.129Z,4.20
2018-04-16T08:14:55.772Z,3.80
2018-04-16T08:17:27.680Z,4.32
2018-04-16T08:19:59.551Z,3.77
2018-04-16T08:22:31.434Z,3.95
2018-04-16T08:25:03.326Z,3.23
2018-04-16T08:27:35.530Z,3.95
2018-04-16T08:30:07.413Z,3.80
2018-04-16T08:32:39.297Z,3.50
2018-04-16T08:35:11.161Z,3.90
2018-04-16T08:37:43.087Z,4.27
2018-04-16T08:40:14.966Z,4.15
2018-04-16T08:42:46.854Z,4.17
2018-04-16T08:45:18.721Z,3.77
2018-04-16T08:47:50.611Z,4.30
2018-04-16T08:50:22.502Z,5.93
2018-04-16T08:52:54.387Z,6.33
2018-04-16T08:55:26.266Z,6.93
2018-04-16T08:57:58.921Z,10.57
2018-04-16T09:00:30.797Z,7.20
2018-04-16T09:03:02.691Z,6.10
2018-04-16T09:05:34.566Z,5.37
2018-04-16T09:08:06.450Z,4.37
2018-04-16T09:10:38.573Z,4.60
2018-04-16T09:13:11.309Z,4.50
2018-04-16T09:15:43.254Z,4.57
2018-04-16T09:18:15.210Z,4.28
2018-04-16T09:20:47.085Z,4.83
2018-04-16T09:23:19.004Z,5.25
2018-04-16T09:25:50.886Z,5.55
2018-04-16T09:28:22.794Z,5.17
2018-04-16T09:30:54.670Z,5.10
2018-04-16T09:33:27.333Z,4.33
2018-04-16T09:36:00.086Z,4.90
2018-04-16T09:38:32.209Z,4.30
2018-04-16T09:41:04.168Z,4.57
2018-04-16T09:43:36.129Z,4.10
2018-04-16T09:46:08.013Z,3.90
2018-04-16T09:48:39.914Z,4.83
2018-04-16T09:51:12.122Z,5.80
2018-04-16T09:53:44.013Z,6.43
2018-04-16T09:56:15.901Z,5.23
2018-04-16T09:58:48.107Z,5.70
2018-04-16T10:01:19.981Z,7.20
2018-04-16T10:03:51.885Z,7.33
2018-04-16T10:06:23.762Z,5.77
2018-04-16T10:08:56.414Z,4.10
2018-04-16T10:11:28.301Z,4.55
2018-04-16T10:14:00.183Z,4.15
2018-04-16T10:16:32.140Z,3.85
2018-04-16T10:19:04.864Z,4.22
2018-04-16T10:21:36.738Z,3.97
2018-04-16T10:24:08.621Z,4.15
2018-04-16T10:26:40.504Z,3.55
2018-04-16T10:29:13.165Z,3.35
2018-04-16T10:31:45.822Z,3.45
2018-04-16T10:34:17.718Z,3.40
2018-04-16T10:36:50.362Z,3.22
2018-04-16T10:39:22.254Z,3.50
2018-04-16T10:41:54.882Z,3.37
2018-04-16T10:44:26.824Z,2.65
2018-04-16T10:46:58.680Z,2.92
2018-04-16T10:49:30.569Z,3.27
2018-04-16T10:52:02.450Z,2.72
2018-04-16T10:54:34.338Z,3.12
2018-04-16T10:57:06.211Z,2.60
2018-04-16T10:59:38.094Z,3.60
2018-04-16T11:02:09.987Z,3.27
2018-04-16T11:04:41.870Z,2.80
2018-04-16T11:07:14.509Z,3.50
2018-04-16T11:09:47.178Z,3.50
2018-04-16T11:12:19.054Z,3.97
2018-04-16T11:14:50.946Z,3.00
2018-04-16T11:17:23.616Z,3.70
2018-04-16T11:19:55.502Z,3.67
2018-04-16T11:22:27.381Z,3.00
2018-04-16T11:24:59.319Z,4.57
2018-04-16T11:27:31.962Z,4.10
2018-04-16T11:30:03.858Z,3.90
2018-04-16T11:32:36.026Z,4.80
2018-04-16T11:35:07.915Z,3.47
2018-04-16T11:37:39.790Z,3.33
2018-04-16T11:40:11.909Z,3.47
2018-04-16T11:42:43.786Z,3.63
2018-04-16T11:45:15.937Z,3.33
2018-04-16T11:47:47.815Z,3.13
2018-04-16T11:50:19.706Z,3.23
2018-04-16T11:52:51.582Z,3.50
2018-04-16T11:55:23.479Z,3.20
2018-04-16T11:57:55.349Z,3.10
2018-04-16T12:00:27.229Z,3.53
2018-04-16T12:02:59.110Z,3.30
2018-04-16T12:05:31.225Z,3.50
2018-04-16T12:08:03.104Z,3.33
2018-04-16T12:10:34.994Z,3.47
2018-04-16T12:13:06.869Z,3.37
2018-04-16T12:15:38.766Z,3.70
2018-04-16T12:18:10.642Z,2.83
2018-04-16T12:20:42.542Z,2.90
2018-04-16T12:23:14.418Z,3.10
2018-04-16T12:25:46.306Z,3.30
2018-04-16T12:28:18.542Z,2.60
2018-04-16T12:30:50.361Z,2.80
2018-04-16T12:33:22.243Z,3.40
2018-04-16T12:35:54.135Z,3.20
2018-04-16T12:38:26.782Z,4.13
2018-04-16T12:40:58.665Z,3.90
2018-04-16T12:43:30.538Z,3.83
2018-04-16T12:46:03.190Z,5.13
2018-04-16T12:48:35.065Z,3.90
2018-04-16T12:51:06.950Z,3.73
2018-04-16T12:53:38.845Z,4.17
2018-04-16T12:56:11.078Z,3.55
2018-04-16T12:58:42.962Z,3.80
2018-04-16T13:01:15.109Z,3.78
2018-04-16T13:03:46.978Z,3.27
2018-04-16T13:06:18.870Z,3.70
2018-04-16T13:08:51.538Z,3.23
2018-04-16T13:11:23.419Z,3.30
2018-04-16T13:13:55.298Z,3.03
2018-04-16T13:16:27.194Z,3.27
2018-04-16T13:18:59.075Z,3.33
2018-04-16T13:21:30.973Z,3.60
2018-04-16T13:24:02.847Z,3.30
2018-04-16T13:26:35.750Z,3.30
2018-04-16T13:29:07.727Z,3.10
2018-04-16T13:31:39.606Z,2.67
2018-04-16T13:34:12.352Z,3.20
2018-04-16T13:36:44.993Z,2.80
2018-04-16T13:39:16.871Z,2.77
2018-04-16T13:41:49.520Z,2.93
2018-04-16T13:44:21.399Z,3.17
2018-04-16T13:46:53.341Z,3.20
2018-04-16T13:49:25.309Z,3.10
2018-04-16T13:51:57.190Z,3.43
2018-04-16T13:54:29.974Z,3.00
2018-04-16T13:57:02.718Z,3.07
2018-04-16T13:59:34.816Z,2.90
2018-04-16T14:02:06.702Z,2.53
2018-04-16T14:04:38.601Z,2.67
2018-04-16T14:07:10.726Z,2.90
2018-04-16T14:09:42.598Z,2.90
2018-04-16T14:12:14.761Z,3.10
2018-04-16T14:14:46.629Z,2.80
2018-04-16T14:17:18.514Z,2.70
2018-04-16T14:19:50.381Z,2.70
2018-04-16T14:22:22.599Z,2.70
2018-04-16T14:24:54.769Z,3.00
2018-04-16T14:27:26.670Z,2.80
2018-04-16T14:29:58.793Z,2.83
2018-04-16T14:32:30.957Z,2.10
2018-04-16T14:35:03.238Z,2.93
2018-04-16T14:37:35.123Z,2.50
2018-04-16T14:40:07.254Z,2.47
2018-04-16T14:42:39.157Z,2.57
2018-04-16T14:45:11.030Z,1.90
2018-04-16T14:47:43.246Z,2.17
2018-04-16T14:50:15.264Z,2.23
2018-04-16T14:52:47.147Z,2.30
2018-04-16T14:55:19.890Z,3.03
2018-04-16T14:57:51.865Z,2.30
2018-04-16T15:00:23.734Z,2.10
2018-04-16T15:02:55.623Z,2.75
2018-04-16T15:05:28.351Z,2.50
2018-04-16T15:08:00.498Z,2.27
2018-04-16T15:10:32.362Z,2.57
2018-04-16T15:13:04.250Z,2.30
2018-04-16T15:15:36.129Z,2.37
2018-04-16T15:18:08.026Z,2.40
2018-04-16T15:20:39.971Z,2.30
2018-04-16T15:23:12.615Z,2.03
2018-04-16T15:25:44.506Z,2.80
2018-04-16T15:28:17.149Z,2.33
2018-04-16T15:30:49.257Z,2.27
2018-04-16T15:33:21.149Z,2.43
2018-04-16T15:35:53.285Z,2.17
2018-04-16T15:38:25.187Z,2.40
2018-04-16T15:40:57.310Z,2.07
2018-04-16T15:43:29.253Z,2.10
2018-04-16T15:46:01.892Z,2.10
2018-04-16T15:48:33.770Z,2.03
2018-04-16T15:51:05.643Z,2.33
2018-04-16T15:53:37.527Z,2.27
2018-04-16T15:56:10.166Z,2.27
2018-04-16T15:58:42.274Z,2.47
2018-04-16T16:01:14.152Z,2.70
2018-04-16T16:03:46.030Z,2.47
2018-04-16T16:06:17.906Z,2.27
2018-04-16T16:08:49.861Z,2.03
2018-04-16T16:11:21.773Z,2.30
2018-04-16T16:13:54.417Z,1.63
2018-04-16T16:16:26.288Z,2.20
2018-04-16T16:18:58.171Z,2.47
2018-04-16T16:21:30.813Z,2.30
2018-04-16T16:24:02.715Z,2.30
2018-04-16T16:26:34.600Z,2.73
2018-04-16T16:29:06.486Z,2.33
2018-04-16T16:31:38.367Z,2.37
2018-04-16T16:34:10.251Z,1.93
2018-04-16T16:36:42.890Z,1.80
2018-04-16T16:39:14.993Z,2.27
2018-04-16T16:41:46.867Z,2.87
2018-04-16T16:44:18.756Z,2.30
2018-04-16T16:46:50.626Z,2.40
2018-04-16T16:49:23.562Z,2.63
2018-04-16T16:51:55.436Z,3.17
2018-04-16T16:54:27.326Z,3.00
2018-04-16T16:56:59.206Z,3.40
2018-04-16T16:59:31.088Z,2.53
2018-04-16T17:02:03.985Z,2.63
2018-04-16T17:04:36.091Z,2.30
2018-04-16T17:07:07.954Z,2.20
2018-04-16T17:09:40.607Z,2.43
2018-04-16T17:12:12.754Z,2.40
2018-04-16T17:14:44.922Z,2.27
2018-04-16T17:17:16.794Z,2.70
2018-04-16T17:19:48.690Z,2.20
2018-04-16T17:22:20.578Z,2.37
2018-04-16T17:24:52.792Z,2.30
2018-04-16T17:27:24.937Z,2.40
2018-04-16T17:29:56.831Z,2.20
2018-04-16T17:32:28.695Z,2.50
2018-04-16T17:35:00.582Z,2.13
2018-04-16T17:37:32.458Z,2.20
2018-04-16T17:40:05.364Z,2.53
2018-04-16T17:42:37.233Z,2.53
2018-04-16T17:45:09.886Z,2.10
2018-04-16T17:47:42.525Z,2.60
2018-04-16T17:50:14.411Z,2.80
2018-04-16T17:52:46.277Z,2.90
2018-04-16T17:55:18.935Z,3.23
2018-04-16T17:57:50.798Z,2.70
2018-04-16T18:00:22.706Z,2.20
2018-04-16T18:02:55.325Z,2.23
2018-04-16T18:05:27.216Z,2.50
2018-04-16T18:07:59.862Z,2.67
2018-04-16T18:10:31.762Z,2.07
2018-04-16T18:13:04.660Z,2.67
2018-04-16T18:15:36.927Z,2.73
2018-04-16T18:18:08.889Z,2.57
2018-04-16T18:20:41.569Z,2.93
2018-04-16T18:23:13.497Z,4.83
2018-04-16T18:25:45.797Z,3.10
2018-04-16T18:28:17.714Z,2.90
2018-04-16T18:30:49.612Z,2.77
2018-04-16T18:33:22.506Z,2.57
2018-04-16T18:35:54.430Z,2.60
2018-04-16T18:38:26.310Z,2.80
2018-04-16T18:40:58.261Z,2.87
2018-04-16T18:43:30.129Z,2.97
2018-04-16T18:46:03.029Z,3.10
2018-04-16T18:48:34.902Z,3.33
2018-04-16T18:51:06.787Z,5.63
2018-04-16T18:53:38.696Z,4.80
2018-04-16T18:56:10.689Z,4.33
2018-04-16T18:58:42.565Z,2.73
2018-04-16T19:01:14.745Z,3.20
2018-04-16T19:03:46.574Z,2.77
2018-04-16T19:06:18.731Z,3.07
2018-04-16T19:08:50.672Z,2.73
2018-04-16T19:11:23.435Z,3.20
2018-04-16T19:13:56.092Z,2.70
2018-04-16T19:16:28.010Z,2.57
2018-04-16T19:19:00.706Z,2.87
2018-04-16T19:21:32.694Z,2.90
2018-04-16T19:24:04.826Z,2.53
2018-04-16T19:26:36.982Z,3.47
2018-04-16T19:29:08.868Z,2.60
2018-04-16T19:31:40.782Z,3.00
2018-04-16T19:34:12.974Z,2.93
2018-04-16T19:36:45.662Z,2.83
2018-04-16T19:39:17.538Z,2.80
2018-04-16T19:41:49.419Z,2.57
